IFLYY LRCV-LROP
Flight info
| Callsign | IFLYY |
|---|---|
| Flight time | N/A |
| Altitude | 4000 |
| Route | PEMOK ARBUT SONOB |
| Aircraft | C172/L-SFG/C |
Departure
| Time | 2026-05-08 19:26 |
|---|---|
| Airport | Craiova International Airport (LRCV) |
Arrival
| Time | N/A |
|---|---|
| Airport | Bucharest Henri Coandă International Airport (LROP) |
| Time | Latitude | Longitude | Altitude | Speed | Heading |
|---|---|---|---|---|---|
| 2026-05-08 19:07 | 44.31350 | 23.87790 | 630 ft | 0 kts | 146° |
| 2026-05-08 19:17 | 44.31346 | 23.87801 | 628 ft | 5 kts | 90° |
| 2026-05-08 19:17 | 44.31395 | 23.87843 | 628 ft | 11 kts | 14° |
| 2026-05-08 19:17 | 44.31487 | 23.87840 | 631 ft | 15 kts | 358° |
| 2026-05-08 19:18 | 44.31599 | 23.87840 | 627 ft | 8 kts | 359° |
| 2026-05-08 19:18 | 44.31610 | 23.87839 | 628 ft | 5 kts | 356° |
| 2026-05-08 19:18 | 44.31673 | 23.87837 | 631 ft | 12 kts | 359° |
| 2026-05-08 19:18 | 44.31688 | 23.87836 | 630 ft | 0 kts | 357° |
| 2026-05-08 19:21 | 44.31689 | 23.87836 | 630 ft | 2 kts | 356° |
| 2026-05-08 19:22 | 44.31753 | 23.87833 | 635 ft | 14 kts | 359° |
| 2026-05-08 19:22 | 44.31801 | 23.87954 | 628 ft | 21 kts | 96° |
| 2026-05-08 19:22 | 44.31802 | 23.88234 | 626 ft | 35 kts | 88° |
| 2026-05-08 19:22 | 44.31805 | 23.88607 | 622 ft | 41 kts | 90° |
| 2026-05-08 19:23 | 44.31808 | 23.89026 | 623 ft | 45 kts | 89° |
| 2026-05-08 19:23 | 44.31817 | 23.89474 | 623 ft | 47 kts | 95° |
| 2026-05-08 19:23 | 44.31816 | 23.89902 | 620 ft | 42 kts | 90° |
| 2026-05-08 19:23 | 44.31820 | 23.90239 | 617 ft | 23 kts | 91° |
| 2026-05-08 19:24 | 44.31841 | 23.90348 | 616 ft | 10 kts | 325° |
| 2026-05-08 19:24 | 44.31836 | 23.90295 | 628 ft | 0 kts | 269° |
| 2026-05-08 19:25 | 44.31833 | 23.90260 | 624 ft | 19 kts | 263° |
| 2026-05-08 19:25 | 44.31829 | 23.89846 | 629 ft | 64 kts | 268° |
| 2026-05-08 19:25 | 44.31815 | 23.89129 | 744 ft | 78 kts | 267° |
| 2026-05-08 19:26 | 44.31816 | 23.88362 | 942 ft | 80 kts | 267° |
| 2026-05-08 19:26 | 44.31817 | 23.87561 | 1106 ft | 86 kts | 266° |
| 2026-05-08 19:26 | 44.31602 | 23.86850 | 1334 ft | 81 kts | 206° |
| 2026-05-08 19:26 | 44.31085 | 23.86686 | 1582 ft | 74 kts | 178° |
| 2026-05-08 19:27 | 44.30614 | 23.86979 | 1764 ft | 76 kts | 141° |
| 2026-05-08 19:27 | 44.30376 | 23.87675 | 1891 ft | 86 kts | 102° |
| 2026-05-08 19:27 | 44.30354 | 23.88506 | 2118 ft | 84 kts | 94° |
| 2026-05-08 19:27 | 44.30384 | 23.89327 | 2362 ft | 85 kts | 91° |
| 2026-05-08 19:28 | 44.30433 | 23.90160 | 2550 ft | 88 kts | 89° |
| 2026-05-08 19:28 | 44.30552 | 23.91013 | 2747 ft | 92 kts | 82° |
| 2026-05-08 19:28 | 44.30736 | 23.91871 | 2999 ft | 91 kts | 77° |
| 2026-05-08 19:28 | 44.30960 | 23.92720 | 3210 ft | 95 kts | 77° |
| 2026-05-08 19:29 | 44.31190 | 23.93567 | 3347 ft | 96 kts | 74° |
| 2026-05-08 19:29 | 44.31396 | 23.94468 | 3535 ft | 95 kts | 83° |
| 2026-05-08 19:29 | 44.31557 | 23.95349 | 3806 ft | 92 kts | 83° |
| 2026-05-08 19:29 | 44.31756 | 23.96160 | 3980 ft | 88 kts | 79° |
| 2026-05-08 19:30 | 44.32017 | 23.97010 | 4020 ft | 103 kts | 74° |
| 2026-05-08 19:30 | 44.32331 | 23.97962 | 4097 ft | 112 kts | 69° |
| 2026-05-08 19:30 | 44.32708 | 23.98984 | 4114 ft | 123 kts | 69° |
| 2026-05-08 19:30 | 44.33076 | 24.00087 | 4238 ft | 125 kts | 71° |
| 2026-05-08 19:31 | 44.33461 | 24.01244 | 4154 ft | 135 kts | 72° |
| 2026-05-08 19:31 | 44.33809 | 24.02465 | 4101 ft | 134 kts | 77° |
| 2026-05-08 19:31 | 44.34101 | 24.03717 | 4027 ft | 134 kts | 80° |
| 2026-05-08 19:31 | 44.34333 | 24.04945 | 4001 ft | 131 kts | 82° |
| 2026-05-08 19:32 | 44.34556 | 24.06142 | 4003 ft | 124 kts | 82° |
| 2026-05-08 19:32 | 44.34750 | 24.07303 | 4003 ft | 123 kts | 85° |
| 2026-05-08 19:32 | 44.34929 | 24.08451 | 4002 ft | 116 kts | 84° |
| 2026-05-08 19:32 | 44.35106 | 24.09545 | 4005 ft | 117 kts | 85° |
| 2026-05-08 19:33 | 44.35284 | 24.10686 | 3998 ft | 120 kts | 85° |
| 2026-05-08 19:33 | 44.35466 | 24.11845 | 4002 ft | 124 kts | 85° |
| 2026-05-08 19:33 | 44.35646 | 24.13006 | 4002 ft | 124 kts | 85° |
| 2026-05-08 19:33 | 44.35826 | 24.14193 | 4010 ft | 127 kts | 85° |
| 2026-05-08 19:34 | 44.36009 | 24.15391 | 4009 ft | 127 kts | 85° |
| 2026-05-08 19:34 | 44.36195 | 24.16575 | 4005 ft | 124 kts | 85° |
| 2026-05-08 19:34 | 44.36380 | 24.17765 | 4006 ft | 127 kts | 85° |
| 2026-05-08 19:34 | 44.36566 | 24.18973 | 3983 ft | 127 kts | 85° |
| 2026-05-08 19:35 | 44.36746 | 24.20132 | 3993 ft | 118 kts | 85° |
| 2026-05-08 19:35 | 44.36923 | 24.21233 | 3988 ft | 114 kts | 85° |
| 2026-05-08 19:35 | 44.37097 | 24.22304 | 3999 ft | 112 kts | 87° |
| 2026-05-08 19:35 | 44.37275 | 24.23384 | 3986 ft | 115 kts | 85° |
| 2026-05-08 19:36 | 44.37452 | 24.24432 | 3997 ft | 110 kts | 85° |
| 2026-05-08 19:36 | 44.37629 | 24.25497 | 3992 ft | 115 kts | 84° |
| 2026-05-08 19:36 | 44.37808 | 24.26598 | 4007 ft | 116 kts | 85° |
| 2026-05-08 19:36 | 44.37985 | 24.27717 | 4013 ft | 120 kts | 85° |
| 2026-05-08 19:37 | 44.38165 | 24.28880 | 4006 ft | 124 kts | 85° |
| 2026-05-08 19:37 | 44.38348 | 24.30053 | 3989 ft | 120 kts | 85° |
| 2026-05-08 19:37 | 44.38521 | 24.31177 | 4005 ft | 118 kts | 85° |
| 2026-05-08 19:37 | 44.38712 | 24.32310 | 3990 ft | 121 kts | 84° |
| 2026-05-08 19:38 | 44.38800 | 24.33446 | 4004 ft | 118 kts | 97° |
| 2026-05-08 19:38 | 44.38821 | 24.34604 | 3985 ft | 120 kts | 96° |
| 2026-05-08 19:38 | 44.38843 | 24.35764 | 3976 ft | 121 kts | 96° |
| 2026-05-08 19:38 | 44.38864 | 24.36915 | 4007 ft | 122 kts | 98° |
| 2026-05-08 19:39 | 44.38889 | 24.38100 | 3990 ft | 120 kts | 96° |
| 2026-05-08 19:39 | 44.38912 | 24.39231 | 3995 ft | 114 kts | 96° |
| 2026-05-08 19:39 | 44.38942 | 24.40335 | 3996 ft | 114 kts | 96° |
| 2026-05-08 19:39 | 44.38971 | 24.41447 | 3993 ft | 115 kts | 96° |
| 2026-05-08 19:40 | 44.38998 | 24.42558 | 3995 ft | 114 kts | 97° |
| 2026-05-08 19:40 | 44.39023 | 24.43668 | 3994 ft | 113 kts | 96° |
| 2026-05-08 19:40 | 44.39057 | 24.44748 | 4004 ft | 110 kts | 96° |
| 2026-05-08 19:40 | 44.39090 | 24.45833 | 3987 ft | 115 kts | 96° |
| 2026-05-08 19:41 | 44.39118 | 24.46966 | 4012 ft | 120 kts | 96° |
| 2026-05-08 19:41 | 44.39143 | 24.48133 | 4005 ft | 118 kts | 96° |
| 2026-05-08 19:41 | 44.39160 | 24.49316 | 4008 ft | 126 kts | 96° |
| 2026-05-08 19:41 | 44.39174 | 24.50545 | 4011 ft | 127 kts | 96° |
| 2026-05-08 19:42 | 44.39196 | 24.51778 | 4008 ft | 127 kts | 96° |
| 2026-05-08 19:42 | 44.39215 | 24.53018 | 3994 ft | 123 kts | 96° |
| 2026-05-08 19:42 | 44.39239 | 24.54190 | 3995 ft | 121 kts | 96° |
| 2026-05-08 19:42 | 44.39260 | 24.55365 | 3996 ft | 121 kts | 95° |
| 2026-05-08 19:43 | 44.39282 | 24.56515 | 4005 ft | 116 kts | 96° |
| 2026-05-08 19:43 | 44.39306 | 24.57659 | 3995 ft | 118 kts | 96° |
| 2026-05-08 19:43 | 44.39332 | 24.58822 | 4013 ft | 122 kts | 96° |
| 2026-05-08 19:43 | 44.39350 | 24.60009 | 4000 ft | 124 kts | 96° |
| 2026-05-08 19:44 | 44.39370 | 24.61194 | 3989 ft | 119 kts | 96° |
| 2026-05-08 19:44 | 44.39409 | 24.62364 | 3998 ft | 124 kts | 92° |
| 2026-05-08 19:44 | 44.39506 | 24.63572 | 3996 ft | 125 kts | 89° |
| 2026-05-08 19:44 | 44.39623 | 24.64772 | 4005 ft | 126 kts | 90° |
| 2026-05-08 19:45 | 44.39739 | 24.65997 | 3993 ft | 128 kts | 89° |
| 2026-05-08 19:45 | 44.39865 | 24.67233 | 3990 ft | 127 kts | 89° |
| 2026-05-08 19:45 | 44.39990 | 24.68441 | 4008 ft | 127 kts | 89° |
| 2026-05-08 19:45 | 44.40116 | 24.69684 | 4009 ft | 130 kts | 89° |
| 2026-05-08 19:46 | 44.40243 | 24.70914 | 4010 ft | 125 kts | 90° |
| 2026-05-08 19:46 | 44.40368 | 24.72140 | 4000 ft | 127 kts | 89° |
| 2026-05-08 19:46 | 44.40617 | 24.74500 | 3991 ft | 125 kts | 90° |
| 2026-05-08 19:47 | 44.40735 | 24.75700 | 3993 ft | 124 kts | 89° |
| 2026-05-08 19:47 | 44.40857 | 24.76882 | 4007 ft | 122 kts | 89° |
| 2026-05-08 19:47 | 44.40981 | 24.78101 | 4001 ft | 129 kts | 89° |
| 2026-05-08 19:47 | 44.41101 | 24.79322 | 3995 ft | 126 kts | 88° |
| 2026-05-08 19:48 | 44.41227 | 24.80506 | 3993 ft | 123 kts | 89° |
| 2026-05-08 19:48 | 44.41351 | 24.81682 | 3997 ft | 121 kts | 89° |
| 2026-05-08 19:48 | 44.41470 | 24.82850 | 4011 ft | 122 kts | 89° |
| 2026-05-08 19:48 | 44.41591 | 24.84052 | 4002 ft | 125 kts | 89° |
| 2026-05-08 19:49 | 44.41712 | 24.85238 | 4009 ft | 123 kts | 89° |
| 2026-05-08 19:49 | 44.41832 | 24.86431 | 4002 ft | 124 kts | 89° |
| 2026-05-08 19:49 | 44.41954 | 24.87640 | 3998 ft | 124 kts | 89° |
| 2026-05-08 19:49 | 44.42078 | 24.88822 | 3993 ft | 122 kts | 89° |
| 2026-05-08 19:50 | 44.42197 | 24.89998 | 4001 ft | 123 kts | 90° |
| 2026-05-08 19:50 | 44.42273 | 24.90792 | 4004 ft | 126 kts | 90° |
| 2026-05-08 19:50 | 44.42393 | 24.91996 | 4000 ft | 127 kts | 89° |
| 2026-05-08 19:50 | 44.42518 | 24.93208 | 3992 ft | 123 kts | 89° |